Time;durP1;ratioP1;P1;durP2;ratioP2;P2;SDS_P1;SDS_P2;PMS_P1;PMS_P2;Temp;Humidity;BMP_temperature;BMP_pressure;BME280_temperature;BME280_humidity;BME280_pressure;Samples;Min_cycle;Max_cycle;Signal;HPM_P1;HPM_P2
2022/09/15 00:02:03;;;;;;;0.45;0.45;;;25.80;55.30;;;;;;5033769;28;20480;-64
2022/09/15 00:04:28;;;;;;;0.65;0.50;;;25.80;55.30;;;;;;5034260;28;20405;-64
2022/09/15 00:06:54;;;;;;;0.68;0.50;;;25.70;55.30;;;;;;5034215;28;20564;-64
2022/09/15 00:09:20;;;;;;;1.08;0.47;;;25.70;55.30;;;;;;5034100;28;20028;-64
2022/09/15 00:11:45;;;;;;;1.13;0.60;;;25.80;55.30;;;;;;5034118;28;20088;-64
2022/09/15 00:14:11;;;;;;;0.57;0.57;;;25.70;55.30;;;;;;5033960;28;20116;-64
2022/09/15 00:16:37;;;;;;;0.65;0.50;;;25.70;55.30;;;;;;5034041;28;20022;-64
2022/09/15 00:19:05;;;;;;;0.73;0.50;;;25.70;55.30;;;;;;5033732;28;20103;-64
2022/09/15 00:21:32;;;;;;;0.40;0.40;;;25.70;55.30;;;;;;5033792;28;20029;-64
2022/09/15 00:23:59;;;;;;;0.88;0.60;;;25.70;55.30;;;;;;5032862;28;20083;-64
2022/09/15 00:26:27;;;;;;;0.82;0.45;;;25.70;55.30;;;;;;5033753;28;20022;-64
2022/09/15 00:28:53;;;;;;;0.68;0.50;;;25.70;55.30;;;;;;5033780;28;20123;-64
2022/09/15 00:31:22;;;;;;;0.80;0.50;;;25.70;55.40;;;;;;5033314;28;20037;-65
2022/09/15 00:33:50;;;;;;;0.50;0.40;;;25.70;55.40;;;;;;5033770;28;20520;-64
2022/09/15 00:36:17;;;;;;;0.50;0.50;;;25.70;55.40;;;;;;5032492;28;20029;-64
2022/09/15 00:38:43;;;;;;;1.00;0.60;;;25.70;55.40;;;;;;5033361;28;20037;-64
2022/09/15 00:41:11;;;;;;;2.53;0.65;;;25.70;55.30;;;;;;5031380;28;20025;-64
2022/09/15 00:43:46;;;;;;;0.50;0.50;;;25.60;55.30;;;;;;5033581;28;20428;-64
2022/09/15 00:46:13;;;;;;;0.50;0.50;;;25.60;55.40;;;;;;5033471;28;20495;-64
2022/09/15 00:48:44;;;;;;;0.50;0.50;;;25.60;55.40;;;;;;5033335;28;20090;-64
2022/09/15 00:51:12;;;;;;;1.05;0.52;;;25.60;55.40;;;;;;5033150;28;20032;-64
2022/09/15 00:53:37;;;;;;;0.70;0.57;;;25.60;55.40;;;;;;5031392;28;20473;-64
2022/09/15 00:56:05;;;;;;;0.50;0.50;;;25.60;55.40;;;;;;5033310;28;20041;-64
2022/09/15 00:58:56;;;;;;;0.50;0.50;;;25.60;55.40;;;;;;5033262;28;20112;-64
2022/09/15 01:01:25;;;;;;;0.35;0.35;;;25.60;55.40;;;;;;5032323;28;20029;-64
2022/09/15 01:03:50;;;;;;;0.40;0.40;;;25.50;55.40;;;;;;5031147;28;20385;-64
2022/09/15 01:06:27;;;;;;;0.77;0.60;;;25.60;55.40;;;;;;5033139;28;20034;-64
2022/09/15 01:09:14;;;;;;;0.50;0.50;;;25.60;55.50;;;;;;5032525;28;20052;-64
2022/09/15 01:11:40;;;;;;;0.50;0.50;;;25.60;55.50;;;;;;5032902;28;20032;-64
2022/09/15 01:14:07;;;;;;;0.73;0.50;;;25.50;55.40;;;;;;5032832;28;20037;-64
2022/09/15 01:16:47;;;;;;;0.70;0.50;;;25.50;55.40;;;;;;5030466;28;20053;-64
2022/09/15 01:19:15;;;;;;;0.80;0.50;;;25.50;55.50;;;;;;5032850;28;20037;-64
2022/09/15 01:21:53;;;;;;;1.50;0.63;;;25.50;55.50;;;;;;5032812;28;20037;-64
2022/09/15 01:24:52;;;;;;;0.40;0.40;;;25.50;55.40;;;;;;5032702;28;20330;-64
2022/09/15 01:27:42;;;;;;;0.40;0.40;;;25.50;55.40;;;;;;5013873;28;20033;-64
2022/09/15 01:30:12;;;;;;;0.63;0.50;;;25.50;55.40;;;;;;5031417;28;20283;-63
2022/09/15 01:33:02;;;;;;;0.40;0.40;;;25.50;55.40;;;;;;5032173;28;20501;-64
2022/09/15 01:35:51;;;;;;;0.60;0.50;;;25.50;55.50;;;;;;5032366;28;20476;-64
2022/09/15 01:38:46;;;;;;;0.50;0.50;;;25.50;55.50;;;;;;5032412;28;20067;-64
2022/09/15 01:41:20;;;;;;;0.50;0.50;;;25.40;55.50;;;;;;5032376;28;20071;-64
2022/09/15 01:44:12;;;;;;;0.80;0.60;;;25.50;55.50;;;;;;5032287;28;20033;-64
2022/09/15 01:46:45;;;;;;;0.95;0.50;;;25.40;55.40;;;;;;5013833;28;20052;-64
2022/09/15 01:49:16;;;;;;;1.02;0.50;;;25.40;55.40;;;;;;5030018;28;20032;-64
2022/09/15 01:51:43;;;;;;;0.40;0.40;;;25.40;55.50;;;;;;5032215;28;20064;-64
2022/09/15 01:54:10;;;;;;;0.68;0.52;;;25.40;55.40;;;;;;5031131;28;20396;-64
2022/09/15 01:56:37;;;;;;;0.40;0.40;;;25.40;55.40;;;;;;5032086;28;20030;-64
2022/09/15 01:59:03;;;;;;;0.43;0.43;;;25.40;55.50;;;;;;5031790;28;20477;-63
2022/09/15 02:01:46;;;;;;;0.50;0.50;;;25.40;55.50;;;;;;5031338;28;20496;-63
2022/09/15 02:04:27;;;;;;;1.05;0.73;;;25.40;55.50;;;;;;5031797;28;20489;-64
2022/09/15 02:07:06;;;;;;;0.45;0.45;;;25.40;55.50;;;;;;5031817;28;20034;-64
2022/09/15 02:09:38;;;;;;;0.52;0.50;;;25.40;55.50;;;;;;5031576;28;20060;-64
2022/09/15 02:12:18;;;;;;;0.85;0.50;;;25.40;55.50;;;;;;5030320;28;20037;-64
2022/09/15 02:15:13;;;;;;;0.60;0.60;;;25.40;55.50;;;;;;5031590;28;20037;-64
2022/09/15 02:17:46;;;;;;;0.60;0.40;;;25.40;55.60;;;;;;5031602;28;20112;-64
2022/09/15 02:20:48;;;;;;;0.60;0.50;;;25.40;55.50;;;;;;5031089;28;20428;-64
2022/09/15 02:23:25;;;;;;;0.50;0.50;;;25.40;56.10;;;;;;5005350;28;20100;-64
2022/09/15 02:25:55;;;;;;;0.40;0.40;;;25.30;55.50;;;;;;5031364;28;20107;-64
2022/09/15 02:28:27;;;;;;;0.57;0.40;;;25.30;55.50;;;;;;5031359;28;20044;-64
2022/09/15 02:30:56;;;;;;;0.77;0.40;;;25.30;55.50;;;;;;5030947;28;20037;-65
2022/09/15 02:33:28;;;;;;;1.63;0.60;;;25.30;55.60;;;;;;5030402;28;20389;-64
2022/09/15 02:35:54;;;;;;;0.40;0.40;;;25.30;55.60;;;;;;5031303;28;20029;-64
2022/09/15 02:38:20;;;;;;;0.60;0.50;;;25.30;55.60;;;;;;5031283;28;20105;-64
2022/09/15 02:40:47;;;;;;;0.75;0.55;;;25.30;55.60;;;;;;5031175;28;20112;-64
2022/09/15 02:43:16;;;;;;;0.40;0.40;;;25.30;55.60;;;;;;5031283;28;20457;-64
2022/09/15 02:45:42;;;;;;;0.85;0.52;;;25.30;55.60;;;;;;5031126;28;20125;-65
2022/09/15 02:48:08;;;;;;;0.43;0.40;;;25.30;55.60;;;;;;5031043;28;20041;-64
2022/09/15 02:50:35;;;;;;;0.57;0.50;;;25.30;55.60;;;;;;5031225;28;20083;-65
2022/09/15 02:53:01;;;;;;;0.47;0.47;;;25.30;55.70;;;;;;5031138;28;20025;-64
2022/09/15 02:55:27;;;;;;;0.70;0.60;;;25.20;55.60;;;;;;5030961;28;20044;-63
2022/09/15 02:57:54;;;;;;;0.65;0.52;;;25.20;55.60;;;;;;5031117;28;20025;-65
2022/09/15 03:00:19;;;;;;;0.65;0.50;;;25.20;55.60;;;;;;5032457;28;20033;-65
2022/09/15 03:02:50;;;;;;;0.50;0.50;;;25.20;55.60;;;;;;5035115;28;20029;-65
2022/09/15 03:05:19;;;;;;;0.45;0.40;;;25.20;55.60;;;;;;5034798;28;20029;-65
2022/09/15 03:07:45;;;;;;;0.55;0.52;;;25.20;55.60;;;;;;5034360;28;20121;-64
2022/09/15 03:10:11;;;;;;;0.50;0.40;;;25.20;56.20;;;;;;5035037;28;20545;-63
2022/09/15 03:12:42;;;;;;;0.63;0.60;;;25.20;55.70;;;;;;5034978;28;20033;-64
2022/09/15 03:15:10;;;;;;;0.70;0.50;;;25.20;55.70;;;;;;5034670;28;20045;-64
2022/09/15 03:17:38;;;;;;;0.55;0.43;;;25.20;55.70;;;;;;5032677;28;20469;-64
2022/09/15 03:20:06;;;;;;;0.63;0.50;;;25.20;55.70;;;;;;5034830;28;20025;-64
2022/09/15 03:22:32;;;;;;;0.43;0.32;;;25.20;55.70;;;;;;5033317;28;20030;-64
2022/09/15 03:24:57;;;;;;;0.70;0.50;;;25.20;55.70;;;;;;5034641;28;20087;-63
2022/09/15 03:27:23;;;;;;;0.52;0.47;;;25.20;55.70;;;;;;5008594;28;20466;-64
2022/09/15 03:29:49;;;;;;;0.40;0.40;;;25.20;55.70;;;;;;5034518;28;20030;-63
2022/09/15 03:32:15;;;;;;;0.55;0.50;;;25.10;55.70;;;;;;5033991;28;20401;-64
2022/09/15 03:34:40;;;;;;;0.30;0.30;;;25.10;55.70;;;;;;5009452;28;20029;-64
2022/09/15 03:37:06;;;;;;;0.63;0.50;;;25.10;55.70;;;;;;5034294;28;20029;-65
2022/09/15 03:39:32;;;;;;;0.60;0.60;;;25.10;55.70;;;;;;5034280;28;20033;-63
2022/09/15 03:41:58;;;;;;;0.60;0.60;;;25.10;55.70;;;;;;5034245;28;20032;-65
2022/09/15 03:44:23;;;;;;;0.50;0.50;;;25.10;55.70;;;;;;5034048;28;20068;-65
2022/09/15 03:46:49;;;;;;;0.55;0.50;;;25.10;55.70;;;;;;5033949;28;20088;-65
2022/09/15 03:49:15;;;;;;;0.70;0.60;;;25.10;55.70;;;;;;5033800;28;20049;-64
2022/09/15 03:51:41;;;;;;;0.52;0.50;;;25.10;55.70;;;;;;5033929;28;20021;-64
2022/09/15 03:54:07;;;;;;;0.60;0.52;;;25.10;55.70;;;;;;5033909;28;20048;-64
2022/09/15 03:56:33;;;;;;;0.40;0.40;;;25.10;55.80;;;;;;5033774;28;20025;-64
2022/09/15 03:59:04;;;;;;;0.60;0.50;;;25.10;55.70;;;;;;5033862;28;20473;-63
2022/09/15 04:01:31;;;;;;;0.43;0.40;;;25.10;55.70;;;;;;5032091;28;20041;-64
2022/09/15 04:03:57;;;;;;;0.68;0.50;;;25.10;55.80;;;;;;5033630;28;20363;-64
2022/09/15 04:06:24;;;;;;;0.60;0.60;;;25.10;55.70;;;;;;5033678;28;20047;-64
2022/09/15 04:08:50;;;;;;;0.55;0.52;;;25.10;55.80;;;;;;5033521;28;20441;-64
2022/09/15 04:11:17;;;;;;;0.40;0.40;;;25.10;55.80;;;;;;5033504;28;20083;-64
2022/09/15 04:13:44;;;;;;;0.47;0.43;;;25.10;55.80;;;;;;5033311;28;20028;-64
2022/09/15 04:16:13;;;;;;;0.82;0.45;;;25.00;55.70;;;;;;5033472;28;20096;-64
2022/09/15 04:18:39;;;;;;;;;;;25.00;55.70;;;;;;5033927;28;20109;-64
2022/09/15 04:21:10;;;;;;;0.40;0.40;;;25.00;55.80;;;;;;5033877;28;20396;-64
2022/09/15 04:23:36;;;;;;;0.60;0.60;;;25.00;55.70;;;;;;5033412;28;20033;-64
2022/09/15 04:26:05;;;;;;;0.55;0.50;;;25.00;55.70;;;;;;5033374;28;20492;-64
2022/09/15 04:28:32;;;;;;;0.88;0.40;;;25.00;55.70;;;;;;5033257;28;20080;-64
2022/09/15 04:31:06;;;;;;;0.98;0.50;;;25.00;55.70;;;;;;5031798;28;20084;-64
2022/09/15 04:33:32;;;;;;;0.50;0.50;;;25.00;55.70;;;;;;5033055;28;20025;-64
2022/09/15 04:36:06;;;;;;;0.52;0.52;;;25.00;55.70;;;;;;5033201;28;20021;-64
2022/09/15 04:38:32;;;;;;;0.60;0.50;;;25.00;55.70;;;;;;5007299;28;20037;-64
2022/09/15 04:40:58;;;;;;;0.65;0.50;;;25.00;55.70;;;;;;5033166;28;20033;-64
2022/09/15 04:43:25;;;;;;;1.33;0.60;;;25.00;55.70;;;;;;5032816;28;20033;-64
2022/09/15 04:45:52;;;;;;;1.20;0.80;;;25.00;55.70;;;;;;5032541;28;20033;-64
2022/09/15 04:48:17;;;;;;;0.45;0.45;;;25.00;55.60;;;;;;5032692;28;20034;-63
2022/09/15 04:50:43;;;;;;;0.63;0.47;;;25.00;55.70;;;;;;5032820;28;20543;-64
2022/09/15 04:53:09;;;;;;;1.00;0.50;;;25.00;55.60;;;;;;5032867;28;20026;-67
2022/09/15 04:55:35;;;;;;;0.43;0.43;;;25.00;55.70;;;;;;5032478;28;20033;-67
2022/09/15 04:58:01;;;;;;;0.50;0.50;;;25.00;55.70;;;;;;5031755;28;20040;-67
2022/09/15 05:00:28;;;;;;;0.50;0.50;;;24.90;55.60;;;;;;5032308;28;20049;-67
2022/09/15 05:02:54;;;;;;;0.65;0.50;;;24.90;55.60;;;;;;5032738;28;20022;-67
2022/09/15 05:05:19;;;;;;;0.47;0.47;;;24.90;55.60;;;;;;5032502;28;20056;-67
2022/09/15 05:07:48;;;;;;;0.57;0.50;;;24.90;55.60;;;;;;5032472;28;20160;-67
2022/09/15 05:10:14;;;;;;;0.52;0.50;;;24.90;55.60;;;;;;5032557;28;20092;-67
2022/09/15 05:12:40;;;;;;;1.05;0.57;;;24.90;55.60;;;;;;5032442;28;20500;-67
2022/09/15 05:15:07;;;;;;;0.77;0.60;;;24.90;55.70;;;;;;5031928;28;20103;-67
2022/09/15 05:17:33;;;;;;;0.50;0.50;;;24.90;55.60;;;;;;5032305;28;20473;-67
2022/09/15 05:19:59;;;;;;;0.80;0.73;;;24.90;55.60;;;;;;5014480;28;20369;-67
2022/09/15 05:22:26;;;;;;;0.95;0.60;;;24.90;55.60;;;;;;5031588;28;20029;-67
2022/09/15 05:24:52;;;;;;;0.77;0.65;;;24.90;55.60;;;;;;5032007;28;20544;-67
2022/09/15 05:27:17;;;;;;;0.73;0.47;;;24.90;55.60;;;;;;5014310;28;20045;-67
2022/09/15 05:29:43;;;;;;;0.80;0.70;;;24.90;55.60;;;;;;5032077;28;20399;-67
2022/09/15 05:32:08;;;;;;;0.85;0.70;;;24.90;55.60;;;;;;5004679;28;20404;-67
2022/09/15 05:34:34;;;;;;;0.57;0.57;;;24.90;55.60;;;;;;5032217;28;20030;-67
2022/09/15 05:37:00;;;;;;;0.60;0.60;;;24.90;55.60;;;;;;5039037;28;20042;-67
2022/09/15 05:39:26;;;;;;;1.25;0.70;;;24.90;55.70;;;;;;5040444;28;20079;-67
2022/09/15 05:41:52;;;;;;;0.50;0.50;;;24.90;55.60;;;;;;5041280;28;20025;-66
2022/09/15 05:44:20;;;;;;;0.60;0.60;;;25.00;55.60;;;;;;5035572;28;20063;-67
2022/09/15 05:46:46;;;;;;;0.63;0.50;;;25.00;55.50;;;;;;5044838;28;20017;-67
2022/09/15 05:49:11;;;;;;;1.02;0.50;;;25.00;55.50;;;;;;5045468;28;20041;-67
2022/09/15 05:51:37;;;;;;;0.73;0.60;;;25.00;55.40;;;;;;5043008;28;20449;-67
2022/09/15 05:54:02;;;;;;;0.63;0.50;;;25.10;55.30;;;;;;5039748;28;20075;-67
2022/09/15 05:56:28;;;;;;;0.40;0.40;;;25.10;55.30;;;;;;5039170;28;20044;-67
2022/09/15 05:58:54;;;;;;;1.00;0.50;;;25.10;55.10;;;;;;5041743;28;20082;-67
2022/09/15 06:01:25;;;;;;;0.70;0.50;;;25.20;55.60;;;;;;5043597;28;20045;-67
2022/09/15 06:03:51;;;;;;;1.60;0.68;;;25.20;55.00;;;;;;5024768;28;20143;-66
2022/09/15 06:06:17;;;;;;;0.65;0.60;;;25.20;54.80;;;;;;5035079;28;20021;-67
2022/09/15 06:08:50;;;;;;;0.73;0.60;;;25.30;54.80;;;;;;5014532;28;20505;-66
2022/09/15 06:11:18;;;;;;;1.02;0.60;;;25.30;54.70;;;;;;5040468;28;20045;-67
2022/09/15 06:13:45;;;;;;;0.52;0.52;;;25.40;54.70;;;;;;5039303;28;20466;-67
2022/09/15 06:16:13;;;;;;;1.10;0.70;;;25.40;54.70;;;;;;5043074;28;20028;-67
2022/09/15 06:18:40;;;;;;;0.63;0.52;;;25.40;54.60;;;;;;5043406;28;20037;-67
2022/09/15 06:21:13;;;;;;;0.65;0.60;;;25.40;54.50;;;;;;5039304;28;20041;-66
2022/09/15 06:23:39;;;;;;;0.90;0.65;;;25.40;54.40;;;;;;5039123;28;20060;-67
2022/09/15 06:26:10;;;;;;;0.80;0.50;;;25.50;54.40;;;;;;5023663;28;20021;-67
2022/09/15 06:28:37;;;;;;;0.60;0.50;;;25.50;54.40;;;;;;5044138;28;20025;-67
2022/09/15 06:31:04;;;;;;;0.68;0.60;;;25.50;54.30;;;;;;5045102;28;20037;-67
2022/09/15 06:33:29;;;;;;;0.80;0.50;;;25.50;54.30;;;;;;5040259;28;20053;-66
2022/09/15 06:35:55;;;;;;;0.93;0.70;;;25.50;54.80;;;;;;5031071;28;20060;-67
2022/09/15 06:38:21;;;;;;;1.02;0.70;;;25.60;54.30;;;;;;5031047;28;20022;-67
2022/09/15 06:40:57;;;;;;;1.10;0.60;;;25.60;54.20;;;;;;5031001;28;20128;-67
2022/09/15 06:43:22;;;;;;;1.00;0.70;;;25.60;54.20;;;;;;5030157;28;20381;-67
2022/09/15 06:45:48;;;;;;;1.35;0.60;;;25.60;54.20;;;;;;5030871;28;20026;-67
2022/09/15 06:48:13;;;;;;;1.00;0.60;;;25.70;54.10;;;;;;5020962;28;20080;-67
2022/09/15 06:50:39;;;;;;;0.75;0.60;;;25.70;54.10;;;;;;5030828;28;20504;-67
2022/09/15 06:53:05;;;;;;;0.90;0.60;;;25.70;54.00;;;;;;5030130;28;20036;-67
2022/09/15 06:55:30;;;;;;;1.40;0.70;;;25.70;54.00;;;;;;5030703;28;20462;-67
2022/09/15 06:57:56;;;;;;;1.00;0.60;;;25.70;54.00;;;;;;5030836;28;20052;-67
2022/09/15 07:00:22;;;;;;;1.05;0.60;;;25.70;53.90;;;;;;5030462;28;20057;-67
2022/09/15 07:02:48;;;;;;;1.00;0.70;;;25.70;53.90;;;;;;5030278;28;20385;-67
2022/09/15 07:05:14;;;;;;;1.55;0.70;;;25.80;54.00;;;;;;5004983;28;20132;-67
2022/09/15 07:07:40;;;;;;;1.02;0.55;;;25.80;53.90;;;;;;5030643;28;20384;-67
2022/09/15 07:10:06;;;;;;;1.30;0.70;;;25.80;53.80;;;;;;5030671;28;20453;-67
2022/09/15 07:12:31;;;;;;;1.08;0.60;;;25.80;53.80;;;;;;5030609;28;20029;-67
2022/09/15 07:14:57;;;;;;;1.13;0.70;;;25.80;53.70;;;;;;5030554;28;20056;-67
2022/09/15 07:17:23;;;;;;;0.95;0.70;;;25.90;53.80;;;;;;5030722;28;20030;-67
2022/09/15 07:19:48;;;;;;;0.93;0.70;;;25.90;53.80;;;;;;5030777;28;20489;-68
2022/09/15 07:22:14;;;;;;;0.90;0.60;;;25.90;53.80;;;;;;5031192;28;20326;-67
2022/09/15 07:24:39;;;;;;;1.65;0.90;;;25.90;53.70;;;;;;5030714;28;20037;-66
2022/09/15 07:27:07;;;;;;;3.17;1.30;;;25.90;53.70;;;;;;5030607;28;20022;-67
2022/09/15 07:29:32;;;;;;;0.60;0.60;;;25.90;53.70;;;;;;5030414;28;20108;-66
2022/09/15 07:31:58;;;;;;;1.40;0.60;;;26.00;53.60;;;;;;5030145;28;20544;-67
2022/09/15 07:34:24;;;;;;;0.80;0.70;;;25.90;53.70;;;;;;5030565;28;20033;-68
2022/09/15 07:36:49;;;;;;;0.70;0.70;;;26.00;53.80;;;;;;5030175;28;20523;-68
2022/09/15 07:39:15;;;;;;;0.82;0.60;;;26.00;53.80;;;;;;5030481;28;20334;-68
2022/09/15 07:41:40;;;;;;;0.75;0.60;;;26.00;53.80;;;;;;5030449;28;20033;-68
2022/09/15 07:44:08;;;;;;;0.82;0.60;;;26.00;53.80;;;;;;5030414;28;20465;-68
2022/09/15 07:46:33;;;;;;;0.65;0.55;;;26.00;53.70;;;;;;5032515;28;20041;-68
2022/09/15 07:49:01;;;;;;;1.05;0.60;;;26.10;53.70;;;;;;5033965;28;20033;-68
2022/09/15 07:51:27;;;;;;;1.92;0.80;;;26.10;53.70;;;;;;5034083;28;20025;-68
2022/09/15 07:53:54;;;;;;;3.00;0.73;;;26.10;53.70;;;;;;5033985;28;20033;-68
2022/09/15 07:56:20;;;;;;;0.95;0.68;;;26.10;53.70;;;;;;5033883;28;20041;-68
2022/09/15 07:58:47;;;;;;;1.27;0.70;;;26.10;53.90;;;;;;5031898;28;20033;-68
2022/09/15 08:01:14;;;;;;;1.42;0.60;;;26.10;53.70;;;;;;5033417;28;20393;-67
2022/09/15 08:03:41;;;;;;;1.10;0.68;;;26.10;53.70;;;;;;5033689;28;20086;-68
2022/09/15 08:06:07;;;;;;;0.95;0.70;;;26.20;53.70;;;;;;5033734;28;20029;-68
2022/09/15 08:08:33;;;;;;;1.25;0.70;;;26.20;53.90;;;;;;5033494;28;20036;-67
2022/09/15 08:10:59;;;;;;;2.33;0.80;;;26.20;53.60;;;;;;5033563;28;20029;-68
2022/09/15 08:13:24;;;;;;;1.17;0.70;;;26.20;53.70;;;;;;5033714;28;20053;-67
2022/09/15 08:15:51;;;;;;;0.82;0.60;;;26.20;53.80;;;;;;5041654;28;20114;-68
2022/09/15 08:18:16;;;;;;;1.15;0.52;;;26.20;53.90;;;;;;5040736;28;20592;-67
2022/09/15 08:20:42;;;;;;;1.52;0.68;;;26.20;53.70;;;;;;5007564;28;20108;-68
2022/09/15 08:23:09;;;;;;;1.08;0.68;;;26.30;54.30;;;;;;5035217;28;20079;-68
2022/09/15 08:25:35;;;;;;;1.52;0.80;;;26.20;53.70;;;;;;5031738;28;20017;-68
2022/09/15 08:28:01;;;;;;;2.13;0.90;;;26.30;53.80;;;;;;5033237;28;20381;-68
2022/09/15 08:30:27;;;;;;;1.85;0.80;;;26.30;53.80;;;;;;5031405;28;20029;-67
2022/09/15 08:32:52;;;;;;;1.92;0.70;;;26.30;53.80;;;;;;5033186;28;20029;-68
2022/09/15 08:35:18;;;;;;;1.00;0.70;;;26.30;54.00;;;;;;5033054;28;20032;-68
2022/09/15 08:37:45;;;;;;;1.55;0.70;;;26.30;53.90;;;;;;5033073;28;20022;-68
2022/09/15 08:40:22;;;;;;;1.67;0.70;;;26.30;53.80;;;;;;5032967;28;20021;-68
2022/09/15 08:42:50;;;;;;;1.17;0.80;;;26.30;53.70;;;;;;5031637;28;20469;-68
2022/09/15 08:45:26;;;;;;;1.13;0.70;;;26.30;53.70;;;;;;5032985;28;20025;-68
2022/09/15 08:47:58;;;;;;;1.10;0.70;;;26.30;53.70;;;;;;5032774;28;20037;-68
2022/09/15 08:50:37;;;;;;;1.42;0.80;;;26.30;53.70;;;;;;5032988;28;20057;-68
2022/09/15 08:53:14;;;;;;;0.63;0.60;;;26.30;53.70;;;;;;5032705;28;20025;-68
2022/09/15 08:55:51;;;;;;;0.82;0.70;;;26.40;53.70;;;;;;5032839;28;20060;-68
2022/09/15 08:58:27;;;;;;;0.80;0.60;;;26.40;53.70;;;;;;5031898;28;20021;-68
2022/09/15 09:01:09;;;;;;;0.93;0.73;;;26.40;53.70;;;;;;5032329;28;20485;-68
2022/09/15 09:03:51;;;;;;;0.82;0.60;;;26.40;53.70;;;;;;5014848;28;20112;-68
2022/09/15 09:06:48;;;;;;;2.08;0.70;;;26.40;53.70;;;;;;5032534;28;20040;-68
2022/09/15 09:09:27;;;;;;;1.83;0.70;;;26.40;53.60;;;;;;5014151;28;20083;-68
2022/09/15 09:11:56;;;;;;;1.00;0.70;;;26.40;53.60;;;;;;5032119;28;20075;-68
2022/09/15 09:15:09;;;;;;;1.37;0.83;;;26.40;53.60;;;;;;5032408;28;20080;-69
2022/09/15 09:17:52;;;;;;;1.17;0.70;;;26.40;53.60;;;;;;4973943;28;20052;-69
2022/09/15 09:20:39;;;;;;;1.45;0.70;;;26.40;53.60;;;;;;5032265;28;20109;-68
2022/09/15 09:23:12;;;;;;;1.20;0.70;;;26.40;53.60;;;;;;5032514;28;20087;-69
2022/09/15 09:25:40;;;;;;;0.80;0.63;;;26.40;53.60;;;;;;5032203;28;20072;-69
2022/09/15 09:28:22;;;;;;;0.88;0.70;;;26.50;53.70;;;;;;5014437;28;20025;-69
2022/09/15 09:30:48;;;;;;;0.75;0.73;;;26.50;53.60;;;;;;5031696;28;20041;-69
2022/09/15 09:33:23;;;;;;;1.58;0.88;;;26.40;54.10;;;;;;5030820;28;20025;-68
2022/09/15 09:35:52;;;;;;;1.23;0.70;;;26.50;53.60;;;;;;5031783;28;20037;-69
2022/09/15 09:38:26;;;;;;;1.10;0.70;;;26.40;53.50;;;;;;5031513;28;20083;-68
2022/09/15 09:40:52;;;;;;;1.20;0.73;;;26.50;53.60;;;;;;5030518;28;20492;-69
2022/09/15 09:43:18;;;;;;;0.98;0.70;;;26.50;53.60;;;;;;5032011;28;20032;-69
2022/09/15 09:45:44;;;;;;;1.13;0.73;;;26.50;53.60;;;;;;5031881;28;20029;-68
2022/09/15 09:48:26;;;;;;;1.65;0.70;;;26.50;53.60;;;;;;5022143;28;20453;-68
2022/09/15 09:50:52;;;;;;;1.58;0.93;;;26.50;53.60;;;;;;5005604;28;20044;-68
2022/09/15 09:53:30;;;;;;;1.15;0.75;;;26.50;54.00;;;;;;5031774;28;20018;-68
2022/09/15 09:56:25;;;;;;;0.80;0.70;;;26.50;53.50;;;;;;5031811;28;20025;-68
2022/09/15 09:58:52;;;;;;;1.00;0.77;;;26.50;53.50;;;;;;5010783;28;20061;-68
2022/09/15 10:01:21;;;;;;;1.00;0.65;;;26.50;53.50;;;;;;5031109;28;20079;-68
2022/09/15 10:03:47;;;;;;;1.08;0.73;;;26.50;53.50;;;;;;5005509;28;20474;-68
2022/09/15 10:06:23;;;;;;;1.48;0.70;;;26.60;53.60;;;;;;5031537;28;20033;-68
2022/09/15 10:08:57;;;;;;;1.10;0.80;;;26.50;53.50;;;;;;5031208;28;20026;-68
2022/09/15 10:11:41;;;;;;;2.38;0.90;;;26.50;53.40;;;;;;5004700;28;20529;-68
2022/09/15 10:14:24;;;;;;;1.08;0.80;;;26.50;53.30;;;;;;5031247;28;20236;-67
2022/09/15 10:17:03;;;;;;;0.98;0.88;;;26.50;53.30;;;;;;5029736;28;20033;-68
2022/09/15 10:19:31;;;;;;;;;;;26.50;53.20;;;;;;5031773;28;20040;-68
2022/09/15 10:21:58;;;;;;;1.08;0.77;;;26.50;53.30;;;;;;5030871;28;20339;-69
2022/09/15 10:24:31;;;;;;;1.08;0.77;;;26.50;53.20;;;;;;5030213;28;20030;-69
2022/09/15 10:27:16;;;;;;;0.88;0.73;;;26.50;53.20;;;;;;5003480;28;20030;-69
2022/09/15 10:29:42;;;;;;;1.20;0.80;;;26.60;53.30;;;;;;5030385;28;20035;-68
2022/09/15 10:32:21;;;;;;;1.20;0.70;;;26.60;53.30;;;;;;5030408;28;20025;-68
2022/09/15 10:34:47;;;;;;;1.25;0.80;;;26.60;53.30;;;;;;5030056;28;20478;-69
2022/09/15 10:37:18;;;;;;;1.20;0.80;;;26.60;53.20;;;;;;5031053;28;20025;-68
2022/09/15 10:39:51;;;;;;;1.08;0.80;;;26.60;53.20;;;;;;5030957;28;20056;-69
2022/09/15 10:42:47;;;;;;;0.85;0.80;;;26.60;53.20;;;;;;5031841;28;20053;-69
2022/09/15 10:45:25;;;;;;;1.60;0.80;;;26.60;53.20;;;;;;5029360;28;20096;-69
2022/09/15 10:48:01;;;;;;;1.15;0.73;;;26.60;53.70;;;;;;5030682;28;20445;-68
2022/09/15 10:50:53;;;;;;;1.73;0.90;;;26.60;53.30;;;;;;5004179;28;20022;-68
2022/09/15 10:53:45;;;;;;;0.75;0.65;;;26.60;53.20;;;;;;5029788;28;20026;-68
2022/09/15 10:56:28;;;;;;;0.95;0.70;;;26.60;53.20;;;;;;5030270;28;20030;-68
2022/09/15 10:59:21;;;;;;;1.23;0.80;;;26.60;53.20;;;;;;5030718;28;20033;-68
2022/09/15 11:02:06;;;;;;;1.60;0.85;;;26.60;53.20;;;;;;5028950;28;20048;-68
2022/09/15 11:04:42;;;;;;;1.25;0.70;;;26.60;53.20;;;;;;5030584;28;20042;-68
2022/09/15 11:07:26;;;;;;;1.42;0.80;;;26.60;53.20;;;;;;5030581;28;20041;-68
2022/09/15 11:10:01;;;;;;;1.08;0.80;;;26.60;53.20;;;;;;5030470;28;20025;-68
2022/09/15 11:12:52;;;;;;;1.15;0.73;;;26.60;53.20;;;;;;5029074;28;20033;-68
2022/09/15 11:15:23;;;;;;;1.08;0.70;;;26.70;53.20;;;;;;5029008;28;20049;-68
2022/09/15 11:18:20;;;;;;;1.50;0.75;;;26.70;53.30;;;;;;5030549;28;20036;-68
2022/09/15 11:21:10;;;;;;;1.20;0.82;;;26.70;53.30;;;;;;5031238;28;20036;-67
2022/09/15 11:23:47;;;;;;;1.23;0.70;;;26.60;53.20;;;;;;5033934;28;20030;-68
2022/09/15 11:26:29;;;;;;;1.25;0.60;;;26.70;53.20;;;;;;5034584;28;20432;-67
2022/09/15 11:29:14;;;;;;;0.93;0.70;;;26.70;53.20;;;;;;5034118;28;20453;-67
2022/09/15 11:31:47;;;;;;;1.05;0.80;;;26.70;53.20;;;;;;5014800;28;20121;-68
2022/09/15 11:34:16;;;;;;;1.02;0.73;;;26.60;53.10;;;;;;5034479;28;20067;-68
2022/09/15 11:36:52;;;;;;;1.15;0.75;;;26.70;53.20;;;;;;5034458;28;20871;-67
2022/09/15 11:39:23;;;;;;;0.82;0.70;;;26.70;53.20;;;;;;5033711;28;20022;-68
2022/09/15 11:42:00;;;;;;;0.70;0.60;;;26.70;53.20;;;;;;5034053;28;20029;-67
2022/09/15 11:44:30;;;;;;;1.40;0.77;;;26.70;53.70;;;;;;5034030;28;20025;-67
2022/09/15 11:47:20;;;;;;;1.05;0.77;;;26.70;53.20;;;;;;5034097;28;20531;-68
2022/09/15 11:49:52;;;;;;;1.17;0.63;;;26.70;53.20;;;;;;5032882;28;20043;-68
2022/09/15 11:52:43;;;;;;;0.90;0.65;;;26.70;53.20;;;;;;5015927;28;20149;-67
2022/09/15 11:55:38;;;;;;;1.08;0.68;;;26.80;53.30;;;;;;5033393;28;20092;-67
2022/09/15 11:58:18;;;;;;;1.30;0.70;;;26.70;53.20;;;;;;5033752;28;20489;-68
2022/09/15 12:00:59;;;;;;;2.35;0.85;;;26.80;53.30;;;;;;5008137;28;20030;-67
2022/09/15 12:03:31;;;;;;;3.05;0.88;;;26.70;53.20;;;;;;5032935;28;20037;-67
2022/09/15 12:06:13;;;;;;;0.88;0.70;;;26.70;53.20;;;;;;5032740;28;20087;-68
2022/09/15 12:08:51;;;;;;;1.05;0.77;;;26.70;53.20;;;;;;5015811;28;20124;-67
2022/09/15 12:11:21;;;;;;;2.03;0.70;;;26.80;53.30;;;;;;5033680;28;20493;-67
2022/09/15 12:13:47;;;;;;;1.13;0.85;;;26.80;53.30;;;;;;5032837;28;20470;-67
2022/09/15 12:16:13;;;;;;;1.05;0.70;;;26.80;53.30;;;;;;5033576;28;20389;-68
2022/09/15 12:18:51;;;;;;;0.88;0.70;;;26.80;53.30;;;;;;5032526;28;20025;-68
2022/09/15 12:21:28;;;;;;;0.77;0.70;;;26.80;53.30;;;;;;5033295;28;20429;-67
2022/09/15 12:24:27;;;;;;;0.50;0.50;;;26.80;53.30;;;;;;5032322;28;20465;-67
2022/09/15 12:26:52;;;;;;;1.27;0.80;;;26.80;53.30;;;;;;5029163;28;20485;-67
2022/09/15 12:29:21;;;;;;;1.40;0.77;;;26.80;53.30;;;;;;5015540;28;20029;-67
2022/09/15 12:31:46;;;;;;;0.90;0.60;;;26.80;53.30;;;;;;5031976;28;20099;-67
2022/09/15 12:34:24;;;;;;;0.73;0.60;;;26.80;53.40;;;;;;5032724;28;20018;-66
2022/09/15 12:36:53;;;;;;;1.10;0.70;;;26.80;53.40;;;;;;5033193;28;20362;-66
2022/09/15 12:39:40;;;;;;;1.42;0.70;;;26.80;53.50;;;;;;5033142;28;20018;-67
2022/09/15 12:42:17;;;;;;;1.23;0.60;;;26.80;53.60;;;;;;5032338;28;20040;-68
2022/09/15 12:44:46;;;;;;;1.42;0.70;;;26.80;53.60;;;;;;5032161;28;20025;-70
2022/09/15 12:47:38;;;;;;;;;;;26.80;53.50;;;;;;5032746;28;20385;-70
2022/09/15 12:50:16;;;;;;;1.00;0.75;;;26.90;53.50;;;;;;5012086;28;19915;-70
2022/09/15 12:52:50;;;;;;;0.55;0.50;;;26.90;53.40;;;;;;5032927;28;20025;-70
2022/09/15 12:55:34;;;;;;;0.75;0.60;;;26.80;53.30;;;;;;5031192;28;20025;-70
2022/09/15 12:58:17;;;;;;;0.50;0.50;;;26.90;53.50;;;;;;5032296;28;20025;-71
2022/09/15 13:00:43;;;;;;;1.80;0.70;;;26.90;53.50;;;;;;5031128;28;20029;-71
2022/09/15 13:03:26;;;;;;;1.13;0.70;;;26.90;53.40;;;;;;5032738;28;20038;-70
2022/09/15 13:06:20;;;;;;;0.68;0.60;;;26.90;53.40;;;;;;5031758;28;20031;-71
2022/09/15 13:09:24;;;;;;;1.27;0.80;;;26.90;53.50;;;;;;5032435;28;20029;-70
2022/09/15 13:11:53;;;;;;;0.73;0.60;;;26.90;53.50;;;;;;5015909;28;20076;-71